createdAt,value
2018-08-17T00:02:14.999Z,4.85
2018-08-17T00:04:43.848Z,4.75
2018-08-17T00:07:13.281Z,4.57
2018-08-17T00:09:42.118Z,4.85
2018-08-17T00:12:10.968Z,4.18
2018-08-17T00:14:39.812Z,4.30
2018-08-17T00:17:08.658Z,4.47
2018-08-17T00:19:37.502Z,4.20
2018-08-17T00:22:06.357Z,4.43
2018-08-17T00:24:35.215Z,4.80
2018-08-17T00:27:04.058Z,5.15
2018-08-17T00:29:32.894Z,4.55
2018-08-17T00:32:01.733Z,4.03
2018-08-17T00:34:30.582Z,4.12
2018-08-17T00:36:59.418Z,4.22
2018-08-17T00:39:28.266Z,3.92
2018-08-17T00:41:57.102Z,4.57
2018-08-17T00:44:25.954Z,4.50
2018-08-17T00:46:54.798Z,4.70
2018-08-17T00:49:24.386Z,4.50
2018-08-17T00:51:53.229Z,4.22
2018-08-17T00:54:22.081Z,4.53
2018-08-17T00:56:50.929Z,4.30
2018-08-17T00:59:19.771Z,4.20
2018-08-17T01:01:48.613Z,4.03
2018-08-17T01:04:17.480Z,4.57
2018-08-17T01:06:46.382Z,4.95
2018-08-17T01:09:15.199Z,4.05
2018-08-17T01:11:44.068Z,5.15
2018-08-17T01:14:12.902Z,4.60
2018-08-17T01:16:41.768Z,4.18
2018-08-17T01:19:10.608Z,4.78
2018-08-17T01:21:39.467Z,4.57
2018-08-17T01:24:09.056Z,4.37
2018-08-17T01:26:37.913Z,4.78
2018-08-17T01:29:06.758Z,4.62
2018-08-17T01:31:36.362Z,4.07
2018-08-17T01:34:05.945Z,4.55
2018-08-17T01:36:34.787Z,5.10
2018-08-17T01:39:03.630Z,4.60
2018-08-17T01:41:32.489Z,4.70
2018-08-17T01:44:01.344Z,4.80
2018-08-17T01:46:30.193Z,5.05
2018-08-17T01:48:59.042Z,4.75
2018-08-17T01:51:27.883Z,4.68
2018-08-17T01:53:56.739Z,5.28
2018-08-17T01:56:25.577Z,4.70
2018-08-17T01:58:54.420Z,5.07
2018-08-17T02:01:23.272Z,4.75
2018-08-17T02:03:52.128Z,4.65
2018-08-17T02:06:20.967Z,4.85
2018-08-17T02:08:49.806Z,4.20
2018-08-17T02:11:18.658Z,4.78
2018-08-17T02:13:47.496Z,4.87
2018-08-17T02:16:16.344Z,4.55
2018-08-17T02:18:45.196Z,4.30
2018-08-17T02:21:14.032Z,4.57
2018-08-17T02:23:42.886Z,4.75
2018-08-17T02:26:11.734Z,4.55
2018-08-17T02:28:40.590Z,4.90
2018-08-17T02:31:09.443Z,4.50
2018-08-17T02:33:38.286Z,4.72
2018-08-17T02:36:07.125Z,4.93
2018-08-17T02:38:36.701Z,5.43
2018-08-17T02:41:06.289Z,4.50
2018-08-17T02:43:35.864Z,4.87
2018-08-17T02:46:04.705Z,5.10
2018-08-17T02:48:33.548Z,4.65
2018-08-17T02:51:02.383Z,5.10
2018-08-17T02:53:31.956Z,4.57
2018-08-17T02:56:00.793Z,4.60
2018-08-17T02:58:29.629Z,4.87
2018-08-17T03:00:58.467Z,5.05
2018-08-17T03:03:28.043Z,4.43
2018-08-17T03:05:56.912Z,4.30
2018-08-17T03:08:25.747Z,4.97
2018-08-17T03:10:54.582Z,4.93
2018-08-17T03:13:23.427Z,4.97
2018-08-17T03:15:53.008Z,4.70
2018-08-17T03:18:21.852Z,4.78
2018-08-17T03:20:50.701Z,5.18
2018-08-17T03:23:19.551Z,4.82
2018-08-17T03:25:48.381Z,6.35
2018-08-17T03:28:17.973Z,5.30
2018-08-17T03:30:46.811Z,4.75
2018-08-17T03:33:15.653Z,5.32
2018-08-17T03:35:44.510Z,4.87
2018-08-17T03:38:13.404Z,5.15
2018-08-17T03:40:42.995Z,5.30
2018-08-17T03:43:11.805Z,5.40
2018-08-17T03:45:40.646Z,5.20
2018-08-17T03:48:09.502Z,5.18
2018-08-17T03:50:38.334Z,4.80
2018-08-17T03:53:07.179Z,5.32
2018-08-17T03:55:36.023Z,5.10
2018-08-17T03:58:04.867Z,4.90
2018-08-17T04:00:34.454Z,5.18
2018-08-17T04:03:03.296Z,5.60
2018-08-17T04:05:32.140Z,5.90
2018-08-17T04:08:00.987Z,5.47
2018-08-17T04:10:29.836Z,5.55
2018-08-17T04:12:59.414Z,5.10
2018-08-17T04:15:28.292Z,5.80
2018-08-17T04:17:57.095Z,5.40
2018-08-17T04:20:25.936Z,5.07
2018-08-17T04:22:54.778Z,6.18
2018-08-17T04:25:23.636Z,5.78
2018-08-17T04:27:52.475Z,6.00
2018-08-17T04:30:21.335Z,6.60
2018-08-17T04:32:50.175Z,6.12
2018-08-17T04:35:19.077Z,5.80
2018-08-17T04:37:47.911Z,6.20
2018-08-17T04:40:16.749Z,6.97
2018-08-17T04:42:45.581Z,6.53
2018-08-17T04:45:14.427Z,6.28
2018-08-17T04:47:43.274Z,6.07
2018-08-17T04:50:12.130Z,6.10
2018-08-17T04:52:40.973Z,5.90
2018-08-17T04:55:10.555Z,6.40
2018-08-17T04:59:48.900Z,6.57
2018-08-17T05:02:18.475Z,5.97
2018-08-17T05:04:47.318Z,6.00
2018-08-17T05:07:16.907Z,6.47
2018-08-17T05:09:45.757Z,6.65
2018-08-17T05:12:14.598Z,6.53
2018-08-17T05:14:43.441Z,5.55
2018-08-17T05:17:12.285Z,6.32
2018-08-17T05:19:41.131Z,6.43
2018-08-17T05:22:09.991Z,6.40
2018-08-17T05:24:38.818Z,6.37
2018-08-17T05:27:07.681Z,9.10
2018-08-17T05:29:36.531Z,12.98
2018-08-17T05:32:05.380Z,9.43
2018-08-17T05:34:34.250Z,8.82
2018-08-17T05:37:03.087Z,8.50
2018-08-17T05:39:32.686Z,8.85
2018-08-17T05:42:02.283Z,7.50
2018-08-17T05:44:31.125Z,7.20
2018-08-17T05:46:59.974Z,7.45
2018-08-17T05:49:28.819Z,7.75
2018-08-17T05:51:57.665Z,8.50
2018-08-17T05:54:26.536Z,8.32
2018-08-17T05:56:56.222Z,8.95
2018-08-17T05:59:24.983Z,9.25
2018-08-17T06:01:53.820Z,9.90
2018-08-17T06:04:22.681Z,8.20
2018-08-17T06:06:51.526Z,9.48
2018-08-17T06:09:21.120Z,8.95
2018-08-17T06:11:50.022Z,8.77
2018-08-17T06:14:18.821Z,9.05
2018-08-17T06:16:47.697Z,8.27
2018-08-17T06:19:16.600Z,9.50
2018-08-17T06:21:45.438Z,9.90
2018-08-17T06:24:14.302Z,9.48
2018-08-17T06:26:43.145Z,9.27
2018-08-17T06:29:11.983Z,8.57
2018-08-17T06:31:40.889Z,9.23
2018-08-17T06:34:10.447Z,8.35
2018-08-17T06:36:39.297Z,9.75
2018-08-17T06:39:08.140Z,8.93
2018-08-17T06:41:38.753Z,8.27
2018-08-17T06:44:07.589Z,8.00
2018-08-17T06:46:36.436Z,8.43
2018-08-17T06:49:05.275Z,8.88
2018-08-17T06:51:34.115Z,9.40
2018-08-17T06:54:03.700Z,9.73
2018-08-17T06:56:32.535Z,9.32
2018-08-17T06:59:01.379Z,10.15
2018-08-17T07:01:30.228Z,9.45
2018-08-17T07:03:59.060Z,10.68
2018-08-17T07:06:27.910Z,11.23
2018-08-17T07:08:56.816Z,9.63
2018-08-17T07:11:25.627Z,9.65
2018-08-17T07:13:54.446Z,9.45
2018-08-17T07:16:24.060Z,9.75
2018-08-17T07:18:53.680Z,9.07
2018-08-17T07:21:22.648Z,10.02
2018-08-17T07:23:52.132Z,6.97
2018-08-17T07:26:20.961Z,6.87
2018-08-17T07:28:49.824Z,6.85
2018-08-17T07:31:18.682Z,7.85
2018-08-17T07:33:47.541Z,10.70
2018-08-17T07:36:16.380Z,9.82
2018-08-17T07:38:46.047Z,9.25
2018-08-17T07:41:14.811Z,9.93
2018-08-17T07:43:43.660Z,9.40
2018-08-17T07:46:12.512Z,9.82
2018-08-17T07:48:41.360Z,10.02
2018-08-17T07:51:10.952Z,10.02
2018-08-17T07:53:39.807Z,6.80
2018-08-17T07:56:08.657Z,8.27
2018-08-17T07:58:37.521Z,10.15
2018-08-17T08:01:07.109Z,11.12
2018-08-17T08:03:35.951Z,9.73
2018-08-17T08:06:04.813Z,8.38
2018-08-17T08:08:33.643Z,9.52
2018-08-17T08:11:02.551Z,8.60
2018-08-17T08:13:31.398Z,9.35
2018-08-17T08:16:00.264Z,9.52
2018-08-17T08:18:29.077Z,8.30
2018-08-17T08:20:57.918Z,8.18
2018-08-17T08:23:26.765Z,7.85
2018-08-17T08:25:55.626Z,7.30
2018-08-17T08:28:24.515Z,8.10
2018-08-17T08:30:53.369Z,7.95
2018-08-17T08:33:22.193Z,7.75
2018-08-17T08:35:51.047Z,7.75
2018-08-17T08:38:19.911Z,6.72
2018-08-17T08:40:48.766Z,7.57
2018-08-17T08:43:17.616Z,8.07
2018-08-17T08:45:46.497Z,7.22
2018-08-17T08:48:15.341Z,6.57
2018-08-17T08:50:44.200Z,6.07
2018-08-17T08:53:13.052Z,6.70
2018-08-17T08:55:42.629Z,6.12
2018-08-17T08:58:11.486Z,5.40
2018-08-17T09:00:40.329Z,5.30
2018-08-17T09:03:09.191Z,5.00
2018-08-17T09:05:38.113Z,6.43
2018-08-17T09:08:07.743Z,6.28
2018-08-17T09:10:36.586Z,6.35
2018-08-17T09:13:05.432Z,8.80
2018-08-17T09:15:34.292Z,7.25
2018-08-17T09:18:03.137Z,7.03
2018-08-17T09:20:32.003Z,7.40
2018-08-17T09:23:00.837Z,8.63
2018-08-17T09:25:30.282Z,7.35
2018-08-17T09:27:59.127Z,7.37
2018-08-17T09:30:27.972Z,7.00
2018-08-17T09:32:56.812Z,6.20
2018-08-17T09:35:25.738Z,6.57
2018-08-17T09:37:54.618Z,6.80
2018-08-17T09:40:23.558Z,6.72
2018-08-17T09:42:52.589Z,7.37
2018-08-17T09:45:21.494Z,6.53
2018-08-17T09:47:50.425Z,6.18
2018-08-17T09:50:20.072Z,6.45
2018-08-17T09:52:48.938Z,6.80
2018-08-17T09:55:17.781Z,6.00
2018-08-17T09:57:46.639Z,6.78
2018-08-17T10:00:15.494Z,6.53
2018-08-17T10:02:44.367Z,6.65
2018-08-17T10:05:13.215Z,6.12
2018-08-17T10:07:44.871Z,6.65
2018-08-17T10:10:13.702Z,7.55
2018-08-17T10:12:43.291Z,6.90
2018-08-17T10:15:12.136Z,8.00
2018-08-17T10:17:40.990Z,9.00
2018-08-17T10:20:09.885Z,8.98
2018-08-17T10:22:38.739Z,10.52
2018-08-17T10:25:07.557Z,9.00
2018-08-17T10:27:37.173Z,8.65
2018-08-17T10:30:06.032Z,8.77
2018-08-17T10:32:34.895Z,12.13
2018-08-17T10:35:03.765Z,9.85
2018-08-17T10:37:32.612Z,40.42
2018-08-17T10:40:01.453Z,10.18
2018-08-17T10:42:30.288Z,8.55
2018-08-17T10:44:59.121Z,8.50
2018-08-17T10:47:27.974Z,13.40
2018-08-17T10:49:56.813Z,7.53
2018-08-17T10:52:25.662Z,8.73
2018-08-17T10:54:54.511Z,6.87
2018-08-17T10:57:23.397Z,9.57
2018-08-17T10:59:52.218Z,8.23
2018-08-17T11:02:21.052Z,8.63
2018-08-17T11:04:49.888Z,7.70
2018-08-17T11:07:18.732Z,8.73
2018-08-17T11:09:47.568Z,7.53
2018-08-17T11:12:16.402Z,7.75
2018-08-17T11:14:45.251Z,8.18
2018-08-17T11:17:14.097Z,8.45
2018-08-17T11:19:42.937Z,8.35
2018-08-17T11:22:11.807Z,9.05
2018-08-17T11:24:40.677Z,8.82
2018-08-17T11:27:09.531Z,8.38
2018-08-17T11:29:38.380Z,8.70
2018-08-17T11:32:07.224Z,8.85
2018-08-17T11:34:36.816Z,8.98
2018-08-17T11:37:05.680Z,8.70
2018-08-17T11:39:34.524Z,8.55
2018-08-17T11:42:03.382Z,9.20
2018-08-17T11:44:32.242Z,8.00
2018-08-17T11:47:01.092Z,8.82
2018-08-17T11:49:29.950Z,9.18
2018-08-17T11:51:58.988Z,8.85
2018-08-17T11:54:27.883Z,8.00
2018-08-17T11:56:57.307Z,8.43
2018-08-17T11:59:26.174Z,7.40
2018-08-17T12:01:55.864Z,8.13
2018-08-17T12:04:24.643Z,7.87
2018-08-17T12:06:53.472Z,8.30
2018-08-17T12:09:22.313Z,7.55
2018-08-17T12:11:51.156Z,7.50
2018-08-17T12:14:20.116Z,8.20
2018-08-17T12:16:48.957Z,7.80
2018-08-17T12:19:17.820Z,7.53
2018-08-17T12:21:46.663Z,7.80
2018-08-17T12:26:44.353Z,8.20
2018-08-17T12:29:13.194Z,7.50
2018-08-17T12:31:42.058Z,7.85
2018-08-17T12:34:10.898Z,7.95
2018-08-17T12:36:39.750Z,8.13
2018-08-17T12:39:08.590Z,7.50
2018-08-17T12:41:37.433Z,8.57
2018-08-17T12:44:06.278Z,8.23
2018-08-17T12:46:35.199Z,7.70
2018-08-17T12:49:03.988Z,8.30
2018-08-17T12:51:33.573Z,8.07
2018-08-17T12:54:02.412Z,7.28
2018-08-17T12:56:31.260Z,7.65
2018-08-17T12:59:00.116Z,8.45
2018-08-17T13:01:28.955Z,8.18
2018-08-17T13:03:57.795Z,7.75
2018-08-17T13:06:26.642Z,7.90
2018-08-17T13:08:55.508Z,7.65
2018-08-17T13:11:24.346Z,8.43
2018-08-17T13:13:53.212Z,8.37
2018-08-17T13:16:22.797Z,8.70
2018-08-17T13:18:51.646Z,8.00
2018-08-17T13:21:20.511Z,7.87
2018-08-17T13:23:49.342Z,7.95
2018-08-17T13:26:18.187Z,7.70
2018-08-17T13:28:47.772Z,7.35
2018-08-17T13:31:16.610Z,7.20
2018-08-17T13:33:45.465Z,7.45
2018-08-17T13:36:14.469Z,7.07
2018-08-17T13:38:43.931Z,7.40
2018-08-17T13:41:12.772Z,7.10
2018-08-17T13:43:41.633Z,7.57
2018-08-17T13:46:10.489Z,7.40
2018-08-17T13:48:39.386Z,7.20
2018-08-17T13:51:09.046Z,6.65
2018-08-17T13:53:37.867Z,6.35
2018-08-17T13:56:06.603Z,6.70
2018-08-17T13:58:35.444Z,6.65
2018-08-17T14:01:04.279Z,6.35
2018-08-17T14:03:33.120Z,5.55
2018-08-17T14:06:01.964Z,6.90
2018-08-17T14:08:31.562Z,7.18
2018-08-17T14:11:01.148Z,7.78
2018-08-17T14:13:30.044Z,7.20
2018-08-17T14:15:58.904Z,7.07
2018-08-17T14:18:27.799Z,7.07
2018-08-17T14:20:56.682Z,6.87
2018-08-17T14:23:26.389Z,6.90
2018-08-17T14:25:55.115Z,6.97
2018-08-17T14:28:23.969Z,7.00
2018-08-17T14:30:53.552Z,6.40
2018-08-17T14:33:22.409Z,6.15
2018-08-17T14:35:51.248Z,6.45
2018-08-17T14:38:20.090Z,6.18
2018-08-17T14:40:48.951Z,6.10
2018-08-17T14:43:17.870Z,6.40
2018-08-17T14:45:46.670Z,5.85
2018-08-17T14:48:15.515Z,6.47
2018-08-17T14:50:44.353Z,6.07
2018-08-17T14:53:13.200Z,6.28
2018-08-17T14:55:42.045Z,5.90
2018-08-17T14:58:10.899Z,5.70
2018-08-17T15:00:39.740Z,5.55
2018-08-17T15:03:08.586Z,6.30
2018-08-17T15:05:37.439Z,5.90
2018-08-17T15:08:06.277Z,6.15
2018-08-17T15:10:35.119Z,6.10
2018-08-17T15:13:07.169Z,6.40
2018-08-17T15:15:35.864Z,5.97
2018-08-17T15:18:05.474Z,5.97
2018-08-17T15:20:35.089Z,6.20
2018-08-17T15:23:03.908Z,6.10
2018-08-17T15:25:32.771Z,6.00
2018-08-17T15:28:01.621Z,5.57
2018-08-17T15:30:30.475Z,5.47
2018-08-17T15:32:59.322Z,5.57
2018-08-17T15:35:28.174Z,6.03
2018-08-17T15:37:57.020Z,6.55
2018-08-17T15:40:26.612Z,6.43
2018-08-17T15:42:55.484Z,6.43
2018-08-17T15:45:24.311Z,6.10
2018-08-17T15:47:53.187Z,6.43
2018-08-17T15:50:22.037Z,6.12
2018-08-17T15:52:50.864Z,6.05
2018-08-17T15:55:19.729Z,6.80
2018-08-17T15:57:48.657Z,7.00
2018-08-17T16:00:17.418Z,6.80
2018-08-17T16:02:46.268Z,6.68
2018-08-17T16:05:15.137Z,5.97
2018-08-17T16:07:43.975Z,6.70
2018-08-17T16:10:12.816Z,6.35
2018-08-17T16:12:41.690Z,6.80
2018-08-17T16:15:10.542Z,6.93
2018-08-17T16:17:39.385Z,7.10
2018-08-17T16:20:08.235Z,17.67
2018-08-17T16:22:37.112Z,21.35
2018-08-17T16:25:05.972Z,11.25
2018-08-17T16:27:34.823Z,8.18
2018-08-17T16:30:03.667Z,9.27
2018-08-17T16:32:32.502Z,8.40
2018-08-17T16:35:01.357Z,7.22
2018-08-17T16:37:30.284Z,7.45
2018-08-17T16:39:59.067Z,7.65
2018-08-17T16:42:27.897Z,7.45
2018-08-17T16:44:56.740Z,6.60
2018-08-17T16:47:25.593Z,6.78
2018-08-17T16:49:54.431Z,6.05
2018-08-17T16:52:23.280Z,5.75
2018-08-17T16:54:52.190Z,5.32
2018-08-17T16:57:21.021Z,5.57
2018-08-17T16:59:49.893Z,5.70
2018-08-17T17:02:18.754Z,5.35
2018-08-17T17:04:47.609Z,5.78
2018-08-17T17:07:16.458Z,6.65
2018-08-17T17:09:45.311Z,5.37
2018-08-17T17:12:14.213Z,5.32
2018-08-17T17:14:43.048Z,5.35
2018-08-17T17:17:12.697Z,5.82
2018-08-17T17:19:41.515Z,5.85
2018-08-17T17:22:10.357Z,5.37
2018-08-17T17:24:39.210Z,6.07
2018-08-17T17:27:08.145Z,5.18
2018-08-17T17:29:36.926Z,5.90
2018-08-17T17:32:10.297Z,5.03
2018-08-17T17:34:48.226Z,5.10
2018-08-17T17:37:07.978Z,5.00
2018-08-17T17:39:36.823Z,5.35
2018-08-17T17:42:05.666Z,5.30
2018-08-17T17:44:34.518Z,5.43
2018-08-17T17:47:03.368Z,5.62
2018-08-17T17:49:32.225Z,5.53
2018-08-17T17:52:01.069Z,5.35
2018-08-17T17:54:29.912Z,5.78
2018-08-17T17:56:58.767Z,5.95
2018-08-17T17:59:27.617Z,5.82
2018-08-17T18:01:56.538Z,6.10
2018-08-17T18:04:25.339Z,5.85
2018-08-17T18:06:54.194Z,6.65
2018-08-17T18:09:23.040Z,6.47
2018-08-17T18:11:51.877Z,5.87
2018-08-17T18:14:20.720Z,5.95
2018-08-17T18:16:49.580Z,5.90
2018-08-17T18:19:18.414Z,6.32
2018-08-17T18:21:47.268Z,5.90
2018-08-17T18:24:16.126Z,6.30
2018-08-17T18:26:44.966Z,6.50
2018-08-17T18:29:13.835Z,6.37
2018-08-17T18:31:42.699Z,5.50
2018-08-17T18:34:11.536Z,6.32
2018-08-17T18:36:40.374Z,6.57
2018-08-17T18:39:09.225Z,6.32
2018-08-17T18:41:38.131Z,6.37
2018-08-17T18:44:06.934Z,6.22
2018-08-17T18:46:35.797Z,6.22
2018-08-17T18:49:04.647Z,6.30
2018-08-17T18:51:33.502Z,6.70
2018-08-17T18:54:02.357Z,7.18
2018-08-17T18:56:31.202Z,6.75
2018-08-17T18:59:00.101Z,7.03
2018-08-17T19:01:28.916Z,7.45
2018-08-17T19:03:57.754Z,7.30
2018-08-17T19:06:26.623Z,7.43
2018-08-17T19:08:55.453Z,7.45
2018-08-17T19:11:24.301Z,6.75
2018-08-17T19:13:53.161Z,6.95
2018-08-17T19:16:22.014Z,7.28
2018-08-17T19:18:50.866Z,7.07
2018-08-17T19:21:20.838Z,7.35
2018-08-17T19:23:49.486Z,7.03
2018-08-17T19:26:18.323Z,7.37
2018-08-17T19:28:47.161Z,7.25
2018-08-17T19:31:16.011Z,7.07
2018-08-17T19:33:44.889Z,7.40
2018-08-17T19:36:13.771Z,7.43
2018-08-17T19:38:42.688Z,7.10
2018-08-17T19:41:12.300Z,7.30
2018-08-17T19:43:41.924Z,7.10
2018-08-17T19:46:11.708Z,7.60
2018-08-17T19:48:40.373Z,7.03
2018-08-17T19:51:09.226Z,6.55
2018-08-17T19:53:38.086Z,6.78
2018-08-17T19:56:06.942Z,7.43
2018-08-17T19:58:35.801Z,7.70
2018-08-17T20:01:04.640Z,6.53
2018-08-17T20:03:33.507Z,7.50
2018-08-17T20:06:02.352Z,7.37
2018-08-17T20:08:31.223Z,7.75
2018-08-17T20:11:00.063Z,7.28
2018-08-17T20:13:28.900Z,7.18
2018-08-17T20:15:58.489Z,7.20
2018-08-17T20:18:28.210Z,7.78
2018-08-17T20:20:57.656Z,7.80
2018-08-17T20:23:26.527Z,7.30
2018-08-17T20:25:56.207Z,8.32
2018-08-17T20:28:24.968Z,8.43
2018-08-17T20:30:53.896Z,7.78
2018-08-17T20:33:22.703Z,8.07
2018-08-17T20:35:52.305Z,8.23
2018-08-17T20:38:21.920Z,8.77
2018-08-17T20:40:51.521Z,9.13
2018-08-17T20:43:20.389Z,9.45
2018-08-17T20:45:49.236Z,9.07
2018-08-17T20:48:18.074Z,8.27
2018-08-17T20:50:46.943Z,8.95
2018-08-17T20:53:15.789Z,9.43
2018-08-17T20:55:44.642Z,8.90
2018-08-17T20:58:13.504Z,8.65
2018-08-17T21:00:42.364Z,9.32
2018-08-17T21:03:11.214Z,9.15
2018-08-17T21:05:40.081Z,8.68
2018-08-17T21:08:08.920Z,9.38
2018-08-17T21:10:37.767Z,8.57
2018-08-17T21:13:06.609Z,9.63
2018-08-17T21:15:35.564Z,9.02
2018-08-17T21:18:04.310Z,8.98
2018-08-17T21:20:33.148Z,9.00
2018-08-17T21:23:02.737Z,9.38
2018-08-17T21:25:31.608Z,10.00
2018-08-17T21:28:00.489Z,9.65
2018-08-17T21:30:29.320Z,9.55
2018-08-17T21:32:58.921Z,9.50
2018-08-17T21:35:27.775Z,10.30
2018-08-17T21:37:56.616Z,10.38
2018-08-17T21:40:25.485Z,9.27
2018-08-17T21:42:54.357Z,10.00
2018-08-17T21:45:23.205Z,9.98
2018-08-17T21:47:52.798Z,9.60
2018-08-17T21:50:21.644Z,10.65
2018-08-17T21:52:50.503Z,9.45
2018-08-17T21:55:20.093Z,10.10
2018-08-17T21:57:49.683Z,10.43
2018-08-17T22:00:18.537Z,10.88
2018-08-17T22:02:47.373Z,10.32
2018-08-17T22:05:16.241Z,9.98
2018-08-17T22:07:45.081Z,10.93
2018-08-17T22:10:13.931Z,9.65
2018-08-17T22:12:42.813Z,9.15
2018-08-17T22:15:11.618Z,9.77
2018-08-17T22:17:40.603Z,9.73
2018-08-17T22:20:09.342Z,9.50
2018-08-17T22:22:38.187Z,9.30
2018-08-17T22:25:07.047Z,9.20
2018-08-17T22:27:35.882Z,8.43
2018-08-17T22:30:04.799Z,9.77
2018-08-17T22:32:33.586Z,8.25
2018-08-17T22:35:02.435Z,10.00
2018-08-17T22:37:31.291Z,7.75
2018-08-17T22:40:00.129Z,10.60
2018-08-17T22:42:29.027Z,9.45
2018-08-17T22:44:57.850Z,10.45
2018-08-17T22:47:26.706Z,9.30
2018-08-17T22:49:55.550Z,9.68
2018-08-17T22:52:24.399Z,9.38
2018-08-17T22:54:53.232Z,8.98
2018-08-17T22:57:22.070Z,7.12
2018-08-17T22:59:50.915Z,9.45
2018-08-17T23:02:19.769Z,9.27
2018-08-17T23:04:48.613Z,8.52
2018-08-17T23:07:17.473Z,9.52
2018-08-17T23:09:46.323Z,9.23
2018-08-17T23:12:15.189Z,9.23
2018-08-17T23:14:44.063Z,9.38
2018-08-17T23:17:12.906Z,9.70
2018-08-17T23:19:41.751Z,9.32
2018-08-17T23:22:10.610Z,8.90
2018-08-17T23:24:39.456Z,8.20
2018-08-17T23:27:09.029Z,9.15
2018-08-17T23:29:37.886Z,8.15
2018-08-17T23:32:06.726Z,9.63
2018-08-17T23:34:36.304Z,9.00
2018-08-17T23:37:05.139Z,7.57
2018-08-17T23:39:33.980Z,8.50
2018-08-17T23:42:02.818Z,8.40
2018-08-17T23:44:31.654Z,8.23
2018-08-17T23:47:01.079Z,8.20
2018-08-17T23:49:29.932Z,9.60
2018-08-17T23:51:58.779Z,9.00
2018-08-17T23:54:27.610Z,8.40
2018-08-17T23:56:56.450Z,8.80
2018-08-17T23:59:25.309Z,7.97
